sensor_id;sensor_type;location;lat;lon;timestamp;pressure;altitude;pressure_sealevel;temperature;humidity
51123;BME280;37162;41.724;13.346;2024-01-11T00:02:04;97079.97;;;17.08;67.89
51123;BME280;37162;41.724;13.346;2024-01-11T00:04:30;97077.88;;;17.10;67.84
51123;BME280;37162;41.724;13.346;2024-01-11T00:06:55;97072.50;;;17.10;67.77
51123;BME280;37162;41.724;13.346;2024-01-11T00:09:21;97074.13;;;17.11;67.46
51123;BME280;37162;41.724;13.346;2024-01-11T00:11:46;97078.69;;;17.11;67.13
51123;BME280;37162;41.724;13.346;2024-01-11T00:14:11;97076.00;;;17.11;67.20
51123;BME280;37162;41.724;13.346;2024-01-11T00:16:37;97077.88;;;17.10;66.96
51123;BME280;37162;41.724;13.346;2024-01-11T00:19:02;97070.88;;;17.09;66.91
51123;BME280;37162;41.724;13.346;2024-01-11T00:21:28;97066.31;;;17.10;67.11
51123;BME280;37162;41.724;13.346;2024-01-11T00:23:53;97071.69;;;17.10;66.90
51123;BME280;37162;41.724;13.346;2024-01-11T00:26:19;97069.00;;;17.10;67.04
51123;BME280;37162;41.724;13.346;2024-01-11T00:28:44;97071.94;;;17.08;66.95
51123;BME280;37162;41.724;13.346;2024-01-11T00:31:10;97065.75;;;17.08;67.07
51123;BME280;37162;41.724;13.346;2024-01-11T00:33:36;97069.25;;;17.08;66.86
51123;BME280;37162;41.724;13.346;2024-01-11T00:36:01;97070.25;;;17.07;66.95
51123;BME280;37162;41.724;13.346;2024-01-11T00:38:27;97064.91;;;17.07;66.99
51123;BME280;37162;41.724;13.346;2024-01-11T00:40:52;97067.56;;;17.07;66.85
51123;BME280;37162;41.724;13.346;2024-01-11T00:43:18;97072.94;;;17.07;66.94
51123;BME280;37162;41.724;13.346;2024-01-11T00:45:45;97071.09;;;17.08;67.03
51123;BME280;37162;41.724;13.346;2024-01-11T00:48:11;97071.09;;;17.08;66.83
51123;BME280;37162;41.724;13.346;2024-01-11T00:50:37;97073.78;;;17.08;67.03
51123;BME280;37162;41.724;13.346;2024-01-11T00:53:03;97076.47;;;17.08;67.28
51123;BME280;37162;41.724;13.346;2024-01-11T00:55:29;97076.25;;;17.09;67.67
51123;BME280;37162;41.724;13.346;2024-01-11T01:02:54;97079.75;;;17.10;67.75
51123;BME280;37162;41.724;13.346;2024-01-11T01:05:20;97078.94;;;17.09;67.31
51123;BME280;37162;41.724;13.346;2024-01-11T01:07:45;97085.13;;;17.10;67.25
51123;BME280;37162;41.724;13.346;2024-01-11T01:10:11;97079.75;;;17.10;67.08
51123;BME280;37162;41.724;13.346;2024-01-11T01:12:36;97078.94;;;17.09;67.06
51123;BME280;37162;41.724;13.346;2024-01-11T01:15:02;97080.78;;;17.09;66.91
51123;BME280;37162;41.724;13.346;2024-01-11T01:17:27;97079.16;;;17.08;66.95
51123;BME280;37162;41.724;13.346;2024-01-11T01:19:53;97086.16;;;17.09;67.04
51123;BME280;37162;41.724;13.346;2024-01-11T01:22:18;97081.84;;;17.08;66.86
51123;BME280;37162;41.724;13.346;2024-01-11T01:24:44;97082.66;;;17.08;66.88
51123;BME280;37162;41.724;13.346;2024-01-11T01:27:09;97086.38;;;17.07;66.76
51123;BME280;37162;41.724;13.346;2024-01-11T01:29:35;97074.81;;;17.07;66.83
51123;BME280;37162;41.724;13.346;2024-01-11T01:32:00;97080.19;;;17.07;67.02
51123;BME280;37162;41.724;13.346;2024-01-11T01:34:25;97078.31;;;17.07;66.93
51123;BME280;37162;41.724;13.346;2024-01-11T01:36:51;97081.22;;;17.06;66.98
51123;BME280;37162;41.724;13.346;2024-01-11T01:39:17;97083.91;;;17.06;66.90
51123;BME280;37162;41.724;13.346;2024-01-11T01:41:42;97079.59;;;17.05;67.16
51123;BME280;37162;41.724;13.346;2024-01-11T01:44:07;97070.59;;;16.99;67.23
51123;BME280;37162;41.724;13.346;2024-01-11T01:46:33;97077.50;;;17.07;67.48
51123;BME280;37162;41.724;13.346;2024-01-11T01:48:59;97078.31;;;17.07;67.42
51123;BME280;37162;41.724;13.346;2024-01-11T01:51:27;97076.47;;;17.08;67.56
51123;BME280;37162;41.724;13.346;2024-01-11T01:53:54;97066.75;;;17.07;67.96
51123;BME280;37162;41.724;13.346;2024-01-11T01:56:22;97072.75;;;17.09;68.08
51123;BME280;37162;41.724;13.346;2024-01-11T01:58:49;97076.25;;;17.09;67.90
51123;BME280;37162;41.724;13.346;2024-01-11T02:01:16;97067.38;;;17.09;67.55
51123;BME280;37162;41.724;13.346;2024-01-11T02:03:45;97069.25;;;17.08;67.09
51123;BME280;37162;41.724;13.346;2024-01-11T02:06:11;97069.25;;;17.08;66.92
51123;BME280;37162;41.724;13.346;2024-01-11T02:08:36;97076.47;;;17.08;66.72
51123;BME280;37162;41.724;13.346;2024-01-11T02:11:03;97065.75;;;17.08;67.09
51123;BME280;37162;41.724;13.346;2024-01-11T02:13:28;97056.50;;;17.04;67.52
51123;BME280;37162;41.724;13.346;2024-01-11T02:15:54;97058.94;;;17.05;67.27
51123;BME280;37162;41.724;13.346;2024-01-11T02:18:19;97068.06;;;17.04;66.95
51123;BME280;37162;41.724;13.346;2024-01-11T02:20:45;97066.41;;;17.03;66.74
51123;BME280;37162;41.724;13.346;2024-01-11T02:23:17;97055.50;;;16.98;66.76
51123;BME280;37162;41.724;13.346;2024-01-11T02:25:44;97054.00;;;17.02;66.91
51123;BME280;37162;41.724;13.346;2024-01-11T02:28:10;97062.06;;;17.02;66.81
51123;BME280;37162;41.724;13.346;2024-01-11T02:30:36;97034.72;;;16.94;66.86
51123;BME280;37162;41.724;13.346;2024-01-11T02:33:02;97045.38;;;17.00;66.86
51123;BME280;37162;41.724;13.346;2024-01-11T02:35:28;97037.56;;;16.99;66.88
51123;BME280;37162;41.724;13.346;2024-01-11T02:37:54;97041.28;;;16.98;66.89
51123;BME280;37162;41.724;13.346;2024-01-11T02:40:20;97042.09;;;16.98;66.89
51123;BME280;37162;41.724;13.346;2024-01-11T02:42:46;97036.72;;;16.98;66.94
51123;BME280;37162;41.724;13.346;2024-01-11T02:45:12;97029.13;;;16.95;67.23
51123;BME280;37162;41.724;13.346;2024-01-11T02:47:38;97033.22;;;16.98;67.42
51123;BME280;37162;41.724;13.346;2024-01-11T02:50:05;97036.50;;;17.00;67.53
51123;BME280;37162;41.724;13.346;2024-01-11T02:52:32;97025.78;;;17.00;67.77
51123;BME280;37162;41.724;13.346;2024-01-11T02:54:57;97017.72;;;17.00;67.82
51123;BME280;37162;41.724;13.346;2024-01-11T02:57:23;97010.72;;;16.99;67.25
51123;BME280;37162;41.724;13.346;2024-01-11T02:59:49;97014.22;;;16.99;66.92
51123;BME280;37162;41.724;13.346;2024-01-11T03:02:15;97016.91;;;16.99;66.72
51123;BME280;37162;41.724;13.346;2024-01-11T03:04:41;97011.53;;;16.99;66.75
51123;BME280;37162;41.724;13.346;2024-01-11T03:07:06;97012.56;;;16.98;66.82
51123;BME280;37162;41.724;13.346;2024-01-11T03:09:32;97016.09;;;16.99;66.67
51123;BME280;37162;41.724;13.346;2024-01-11T03:11:57;97010.72;;;16.99;67.62
51123;BME280;37162;41.724;13.346;2024-01-11T03:14:22;97019.81;;;16.98;67.48
51123;BME280;37162;41.724;13.346;2024-01-11T03:16:48;97018.16;;;16.97;67.32
51123;BME280;37162;41.724;13.346;2024-01-11T03:19:13;97014.66;;;16.96;66.83
51123;BME280;37162;41.724;13.346;2024-01-11T03:21:43;97018.97;;;16.97;66.92
51123;BME280;37162;41.724;13.346;2024-01-11T03:24:08;97018.97;;;16.97;66.99
51123;BME280;37162;41.724;13.346;2024-01-11T03:26:34;97010.13;;;16.97;66.96
51123;BME280;37162;41.724;13.346;2024-01-11T03:28:59;97004.75;;;16.97;66.90
51123;BME280;37162;41.724;13.346;2024-01-11T03:31:25;97009.31;;;16.96;66.85
51123;BME280;37162;41.724;13.346;2024-01-11T03:33:50;97010.94;;;16.97;66.94
51123;BME280;37162;41.724;13.346;2024-01-11T03:36:16;97010.13;;;16.97;66.79
51123;BME280;37162;41.724;13.346;2024-01-11T03:38:41;97005.56;;;16.97;66.94
51123;BME280;37162;41.724;13.346;2024-01-11T03:41:08;97002.88;;;16.97;66.91
51123;BME280;37162;41.724;13.346;2024-01-11T03:43:34;97004.50;;;16.98;67.11
51123;BME280;37162;41.724;13.346;2024-01-11T03:45:59;97000.81;;;16.99;67.48
51123;BME280;37162;41.724;13.346;2024-01-11T03:48:25;97004.06;;;17.01;67.56
51123;BME280;37162;41.724;13.346;2024-01-11T03:50:50;97005.94;;;17.01;67.79
51123;BME280;37162;41.724;13.346;2024-01-11T03:53:16;96994.97;;;17.02;67.80
51123;BME280;37162;41.724;13.346;2024-01-11T03:55:41;97001.16;;;17.03;67.88
51123;BME280;37162;41.724;13.346;2024-01-11T03:58:07;96996.84;;;17.02;67.42
51123;BME280;37162;41.724;13.346;2024-01-11T04:00:32;96993.09;;;17.03;67.29
51123;BME280;37162;41.724;13.346;2024-01-11T04:02:58;96976.38;;;16.89;67.12
51123;BME280;37162;41.724;13.346;2024-01-11T04:05:24;97004.69;;;17.03;66.99
51123;BME280;37162;41.724;13.346;2024-01-11T04:07:49;97002.81;;;17.04;66.80
51123;BME280;37162;41.724;13.346;2024-01-11T04:10:17;97002.00;;;17.03;66.93
51123;BME280;37162;41.724;13.346;2024-01-11T04:12:42;97002.00;;;17.03;66.90
51123;BME280;37162;41.724;13.346;2024-01-11T04:15:08;97001.16;;;17.03;66.82
51123;BME280;37162;41.724;13.346;2024-01-11T04:17:34;96999.50;;;17.02;66.91
51123;BME280;37162;41.724;13.346;2024-01-11T04:19:59;97001.38;;;17.01;66.93
51123;BME280;37162;41.724;13.346;2024-01-11T04:22:25;96998.69;;;17.01;66.77
51123;BME280;37162;41.724;13.346;2024-01-11T04:24:50;97002.19;;;17.02;66.90
51123;BME280;37162;41.724;13.346;2024-01-11T04:27:15;97003.25;;;17.01;66.84
51123;BME280;37162;41.724;13.346;2024-01-11T04:29:41;96998.81;;;16.95;66.72
51123;BME280;37162;41.724;13.346;2024-01-11T04:32:06;97007.81;;;17.00;66.73
51123;BME280;37162;41.724;13.346;2024-01-11T04:34:32;97002.06;;;16.97;66.67
51123;BME280;37162;41.724;13.346;2024-01-11T04:36:57;97009.69;;;17.00;66.77
51123;BME280;37162;41.724;13.346;2024-01-11T04:39:23;97011.53;;;16.99;66.53
51123;BME280;37162;41.724;13.346;2024-01-11T04:41:48;97011.53;;;16.99;66.67
51123;BME280;37162;41.724;13.346;2024-01-11T04:44:14;97007.81;;;17.00;67.08
51123;BME280;37162;41.724;13.346;2024-01-11T04:46:39;97001.25;;;16.96;67.28
51123;BME280;37162;41.724;13.346;2024-01-11T04:49:04;96990.63;;;16.90;67.55
51123;BME280;37162;41.724;13.346;2024-01-11T04:51:30;97004.88;;;17.02;67.70
51123;BME280;37162;41.724;13.346;2024-01-11T04:53:56;97002.19;;;17.02;67.84
51123;BME280;37162;41.724;13.346;2024-01-11T04:56:21;97012.94;;;17.02;67.47
51123;BME280;37162;41.724;13.346;2024-01-11T04:58:47;97007.56;;;17.02;67.20
51123;BME280;37162;41.724;13.346;2024-01-11T05:01:17;97013.75;;;17.02;67.01
51123;BME280;37162;41.724;13.346;2024-01-11T05:03:43;97006.75;;;17.01;66.86
51123;BME280;37162;41.724;13.346;2024-01-11T05:06:18;97007.56;;;17.02;66.64
51123;BME280;37162;41.724;13.346;2024-01-11T05:08:48;96998.69;;;17.01;66.71
51123;BME280;37162;41.724;13.346;2024-01-11T05:11:17;96997.88;;;17.01;66.50
51123;BME280;37162;41.724;13.346;2024-01-11T05:13:43;97008.63;;;17.01;66.42
51123;BME280;37162;41.724;13.346;2024-01-11T05:16:20;96997.06;;;17.00;66.56
51123;BME280;37162;41.724;13.346;2024-01-11T05:18:46;96999.38;;;16.97;66.39
51123;BME280;37162;41.724;13.346;2024-01-11T05:21:12;97005.13;;;17.00;66.39
51123;BME280;37162;41.724;13.346;2024-01-11T05:23:37;96998.13;;;16.99;66.54
51123;BME280;37162;41.724;13.346;2024-01-11T05:26:03;97001.25;;;16.96;66.49
51123;BME280;37162;41.724;13.346;2024-01-11T05:28:28;96999.81;;;16.94;66.46
51123;BME280;37162;41.724;13.346;2024-01-11T05:30:54;97008.25;;;16.97;66.48
51123;BME280;37162;41.724;13.346;2024-01-11T05:33:20;97005.81;;;16.96;66.51
51123;BME280;37162;41.724;13.346;2024-01-11T05:35:45;96994.13;;;16.90;66.48
51123;BME280;37162;41.724;13.346;2024-01-11T05:38:11;97001.50;;;16.95;66.47
51123;BME280;37162;41.724;13.346;2024-01-11T05:40:36;96998.81;;;16.95;66.74
51123;BME280;37162;41.724;13.346;2024-01-11T05:43:02;96989.94;;;16.94;66.78
51123;BME280;37162;41.724;13.346;2024-01-11T05:45:27;96996.94;;;16.95;67.18
51123;BME280;37162;41.724;13.346;2024-01-11T05:47:53;96994.25;;;16.95;67.41
51123;BME280;37162;41.724;13.346;2024-01-11T05:50:18;96992.38;;;16.96;67.49
51123;BME280;37162;41.724;13.346;2024-01-11T05:52:43;96987.00;;;16.96;67.51
51123;BME280;37162;41.724;13.346;2024-01-11T05:55:09;96985.38;;;16.95;67.13
51123;BME280;37162;41.724;13.346;2024-01-11T05:57:34;96996.13;;;16.95;66.97
51123;BME280;37162;41.724;13.346;2024-01-11T06:00:00;96990.97;;;16.93;66.68
51123;BME280;37162;41.724;13.346;2024-01-11T06:02:26;96974.72;;;16.88;66.72
51123;BME280;37162;41.724;13.346;2024-01-11T06:04:51;96979.41;;;16.93;66.74
51123;BME280;37162;41.724;13.346;2024-01-11T06:07:17;96980.47;;;16.92;66.93
51123;BME280;37162;41.724;13.346;2024-01-11T06:09:42;96974.28;;;16.91;66.79
51123;BME280;37162;41.724;13.346;2024-01-11T06:12:08;96974.50;;;16.90;66.94
51123;BME280;37162;41.724;13.346;2024-01-11T06:14:34;96981.75;;;16.89;67.13
51123;BME280;37162;41.724;13.346;2024-01-11T06:16:59;96980.91;;;16.89;66.95
51123;BME280;37162;41.724;13.346;2024-01-11T06:19:26;96979.28;;;16.88;66.96
51123;BME280;37162;41.724;13.346;2024-01-11T06:21:51;96981.94;;;16.88;67.11
51123;BME280;37162;41.724;13.346;2024-01-11T06:24:17;96966.09;;;16.86;66.93
51123;BME280;37162;41.724;13.346;2024-01-11T06:26:42;96949.47;;;16.77;67.06
51123;BME280;37162;41.724;13.346;2024-01-11T06:29:08;96970.66;;;16.85;67.07
51123;BME280;37162;41.724;13.346;2024-01-11T06:31:33;96968.78;;;16.86;67.04
51123;BME280;37162;41.724;13.346;2024-01-11T06:33:58;96965.28;;;16.85;67.32
51123;BME280;37162;41.724;13.346;2024-01-11T06:36:24;96967.97;;;16.85;67.25
51123;BME280;37162;41.724;13.346;2024-01-11T06:38:49;96967.16;;;16.85;67.33
51123;BME280;37162;41.724;13.346;2024-01-11T06:41:15;96955.59;;;16.84;67.30
51123;BME280;37162;41.724;13.346;2024-01-11T06:43:40;96959.09;;;16.85;67.26
51123;BME280;37162;41.724;13.346;2024-01-11T06:46:06;96953.50;;;16.86;67.17
51123;BME280;37162;41.724;13.346;2024-01-11T06:48:32;96949.03;;;16.80;67.34
51123;BME280;37162;41.724;13.346;2024-01-11T06:50:58;96952.44;;;16.88;67.49
51123;BME280;37162;41.724;13.346;2024-01-11T06:53:23;96944.88;;;16.84;67.32
51123;BME280;37162;41.724;13.346;2024-01-11T06:55:49;96949.75;;;16.88;67.09
51123;BME280;37162;41.724;13.346;2024-01-11T06:58:16;96947.88;;;16.88;66.92
51123;BME280;37162;41.724;13.346;2024-01-11T07:00:41;96955.13;;;16.88;66.84
51123;BME280;37162;41.724;13.346;2024-01-11T07:03:11;96934.81;;;16.80;66.81
51123;BME280;37162;41.724;13.346;2024-01-11T07:05:37;96953.50;;;16.86;66.88
51123;BME280;37162;41.724;13.346;2024-01-11T07:08:02;96953.50;;;16.86;66.74
51123;BME280;37162;41.724;13.346;2024-01-11T07:10:29;96951.63;;;16.87;66.72
51123;BME280;37162;41.724;13.346;2024-01-11T07:12:54;96948.94;;;16.87;66.70
51123;BME280;37162;41.724;13.346;2024-01-11T07:15:20;96950.81;;;16.86;66.77
51123;BME280;37162;41.724;13.346;2024-01-11T07:17:45;96956.16;;;16.86;66.79
51123;BME280;37162;41.724;13.346;2024-01-11T07:20:11;96952.69;;;16.86;66.66
51123;BME280;37162;41.724;13.346;2024-01-11T07:22:36;96951.50;;;16.82;66.83
51123;BME280;37162;41.724;13.346;2024-01-11T07:25:02;96961.53;;;16.86;66.84
51123;BME280;37162;41.724;13.346;2024-01-11T07:27:29;96960.72;;;16.86;66.79
51123;BME280;37162;41.724;13.346;2024-01-11T07:29:54;96957.22;;;16.85;66.72
51123;BME280;37162;41.724;13.346;2024-01-11T07:32:20;96965.03;;;16.87;66.62
51123;BME280;37162;41.724;13.346;2024-01-11T07:34:45;96972.28;;;16.86;66.77
51123;BME280;37162;41.724;13.346;2024-01-11T07:37:11;96958.13;;;16.79;66.87
51123;BME280;37162;41.724;13.346;2024-01-11T07:39:36;96961.53;;;16.86;66.90
51123;BME280;37162;41.724;13.346;2024-01-11T07:42:02;96964.22;;;16.86;66.97
51123;BME280;37162;41.724;13.346;2024-01-11T07:44:28;96970.41;;;16.87;67.24
51123;BME280;37162;41.724;13.346;2024-01-11T07:46:53;96978.47;;;16.87;67.30
51123;BME280;37162;41.724;13.346;2024-01-11T07:49:19;96969.59;;;16.86;67.46
51123;BME280;37162;41.724;13.346;2024-01-11T07:51:44;96972.28;;;16.86;67.52
51123;BME280;37162;41.724;13.346;2024-01-11T07:54:10;96978.47;;;16.87;67.47
51123;BME280;37162;41.724;13.346;2024-01-11T07:56:35;96978.69;;;16.85;67.17
51123;BME280;37162;41.724;13.346;2024-01-11T07:59:00;96980.56;;;16.85;66.99
51123;BME280;37162;41.724;13.346;2024-01-11T08:01:26;96976.81;;;16.86;66.92
51123;BME280;37162;41.724;13.346;2024-01-11T08:03:51;96973.31;;;16.85;67.04
51123;BME280;37162;41.724;13.346;2024-01-11T08:06:17;96960.78;;;16.79;67.03
51123;BME280;37162;41.724;13.346;2024-01-11T08:08:43;96970.84;;;16.84;66.88
51123;BME280;37162;41.724;13.346;2024-01-11T08:11:09;96973.78;;;16.82;66.81
51123;BME280;37162;41.724;13.346;2024-01-11T08:13:35;96971.91;;;16.83;66.96
51123;BME280;37162;41.724;13.346;2024-01-11T08:16:03;96974.81;;;16.81;66.90
51123;BME280;37162;41.724;13.346;2024-01-11T08:18:30;96960.22;;;16.77;67.03
51123;BME280;37162;41.724;13.346;2024-01-11T08:20:56;96964.53;;;16.78;66.87
51123;BME280;37162;41.724;13.346;2024-01-11T08:23:21;96965.34;;;16.79;66.96
51123;BME280;37162;41.724;13.346;2024-01-11T08:25:49;96967.22;;;16.78;67.13
51123;BME280;37162;41.724;13.346;2024-01-11T08:28:14;96953.50;;;16.68;67.20
51123;BME280;37162;41.724;13.346;2024-01-11T08:30:40;96968.50;;;16.76;67.35
51123;BME280;37162;41.724;13.346;2024-01-11T08:33:07;96972.22;;;16.75;67.15
51123;BME280;37162;41.724;13.346;2024-01-11T08:35:33;96968.72;;;16.74;67.36
51123;BME280;37162;41.724;13.346;2024-01-11T08:37:58;96972.22;;;16.75;67.03
51123;BME280;37162;41.724;13.346;2024-01-11T08:40:24;96974.31;;;16.73;67.18
51123;BME280;37162;41.724;13.346;2024-01-11T08:42:50;96965.66;;;16.71;67.15
51123;BME280;37162;41.724;13.346;2024-01-11T08:45:16;96964.41;;;16.73;67.46
51123;BME280;37162;41.724;13.346;2024-01-11T08:47:46;96946.34;;;16.62;67.29
51123;BME280;37162;41.724;13.346;2024-01-11T08:50:13;96961.72;;;16.73;66.83
51123;BME280;37162;41.724;13.346;2024-01-11T08:52:38;96948.81;;;16.64;66.57
51123;BME280;37162;41.724;13.346;2024-01-11T08:55:05;96962.16;;;16.70;66.33
51123;BME280;37162;41.724;13.346;2024-01-11T08:57:30;96957.59;;;16.71;66.34
51123;BME280;37162;41.724;13.346;2024-01-11T08:59:56;96964.00;;;16.70;66.39
51123;BME280;37162;41.724;13.346;2024-01-11T09:02:21;96956.78;;;16.70;66.43
51123;BME280;37162;41.724;13.346;2024-01-11T09:04:48;96954.91;;;16.71;66.31
51123;BME280;37162;41.724;13.346;2024-01-11T09:07:14;96952.91;;;16.66;66.14
51123;BME280;37162;41.724;13.346;2024-01-11T09:09:41;96952.91;;;16.66;65.86
51123;BME280;37162;41.724;13.346;2024-01-11T09:12:06;96951.25;;;16.65;65.75
51123;BME280;37162;41.724;13.346;2024-01-11T09:14:32;96952.31;;;16.64;65.78
51123;BME280;37162;41.724;13.346;2024-01-11T09:16:57;96935.94;;;16.54;65.85
51123;BME280;37162;41.724;13.346;2024-01-11T09:19:23;96955.00;;;16.64;65.88
51123;BME280;37162;41.724;13.346;2024-01-11T09:21:49;96941.28;;;16.54;66.08
51123;BME280;37162;41.724;13.346;2024-01-11T09:24:14;96948.00;;;16.63;66.07
51123;BME280;37162;41.724;13.346;2024-01-11T09:26:40;96928.69;;;16.54;66.33
51123;BME280;37162;41.724;13.346;2024-01-11T09:29:05;96943.22;;;16.65;66.51
51123;BME280;37162;41.724;13.346;2024-01-11T09:31:31;96939.50;;;16.66;66.30
51123;BME280;37162;41.724;13.346;2024-01-11T09:33:56;96937.63;;;16.67;66.40
51123;BME280;37162;41.724;13.346;2024-01-11T09:36:22;96939.03;;;16.69;66.61
51123;BME280;37162;41.724;13.346;2024-01-11T09:38:48;96933.47;;;16.71;66.59
51123;BME280;37162;41.724;13.346;2024-01-11T09:41:14;96924.81;;;16.69;66.52
51123;BME280;37162;41.724;13.346;2024-01-11T09:43:41;96932.81;;;16.75;66.51
51123;BME280;37162;41.724;13.346;2024-01-11T09:46:07;96917.00;;;16.67;66.35
51123;BME280;37162;41.724;13.346;2024-01-11T09:48:35;96910.56;;;16.68;66.52
51123;BME280;37162;41.724;13.346;2024-01-11T09:51:02;96933.97;;;16.79;66.44
51123;BME280;37162;41.724;13.346;2024-01-11T09:53:32;96921.41;;;16.80;66.51
51123;BME280;37162;41.724;13.346;2024-01-11T09:55:59;96928.75;;;16.84;66.62
51123;BME280;37162;41.724;13.346;2024-01-11T09:58:25;96925.03;;;16.85;66.35
51123;BME280;37162;41.724;13.346;2024-01-11T10:00:54;96922.00;;;16.94;65.72
51123;BME280;37162;41.724;13.346;2024-01-11T10:03:22;96918.75;;;16.92;65.07
51123;BME280;37162;41.724;13.346;2024-01-11T10:05:49;96913.94;;;16.94;64.63
51123;BME280;37162;41.724;13.346;2024-01-11T10:08:15;96915.38;;;16.96;63.95
51123;BME280;37162;41.724;13.346;2024-01-11T10:10:43;96909.31;;;17.01;63.73
51123;BME280;37162;41.724;13.346;2024-01-11T10:13:11;96910.94;;;17.02;63.32
51123;BME280;37162;41.724;13.346;2024-01-11T10:15:37;96905.81;;;17.00;62.93
51123;BME280;37162;41.724;13.346;2024-01-11T10:18:02;96903.94;;;17.01;63.61
51123;BME280;37162;41.724;13.346;2024-01-11T10:20:28;96891.34;;;17.01;63.61
51123;BME280;37162;41.724;13.346;2024-01-11T10:22:56;96892.41;;;17.00;63.73
51123;BME280;37162;41.724;13.346;2024-01-11T10:25:22;96883.53;;;17.00;63.56
51123;BME280;37162;41.724;13.346;2024-01-11T10:27:48;96883.16;;;16.96;63.87
51123;BME280;37162;41.724;13.346;2024-01-11T10:30:15;96882.91;;;16.98;64.14
51123;BME280;37162;41.724;13.346;2024-01-11T10:32:42;96874.06;;;16.97;64.22
51123;BME280;37162;41.724;13.346;2024-01-11T10:35:08;96858.16;;;16.84;63.92
51123;BME280;37162;41.724;13.346;2024-01-11T10:37:34;96874.28;;;16.96;64.13
51123;BME280;37162;41.724;13.346;2024-01-11T10:40:03;96868.13;;;16.95;64.33
51123;BME280;37162;41.724;13.346;2024-01-11T10:42:34;96869.38;;;16.93;64.24
51123;BME280;37162;41.724;13.346;2024-01-11T10:45:03;96857.13;;;16.85;64.45
51123;BME280;37162;41.724;13.346;2024-01-11T10:47:32;96869.38;;;16.93;64.69
51123;BME280;37162;41.724;13.346;2024-01-11T10:50:01;96866.69;;;16.93;64.69
51123;BME280;37162;41.724;13.346;2024-01-11T10:52:36;96853.28;;;16.93;65.18
51123;BME280;37162;41.724;13.346;2024-01-11T10:55:04;96854.31;;;16.92;65.47
51123;BME280;37162;41.724;13.346;2024-01-11T10:57:32;96855.16;;;16.92;65.66
51123;BME280;37162;41.724;13.346;2024-01-11T10:59:59;96845.22;;;16.93;65.60
51123;BME280;37162;41.724;13.346;2024-01-11T11:02:34;96849.78;;;16.92;65.31
51123;BME280;37162;41.724;13.346;2024-01-11T11:05:01;96843.59;;;16.92;64.91
51123;BME280;37162;41.724;13.346;2024-01-11T11:07:30;96835.53;;;16.92;65.06
51123;BME280;37162;41.724;13.346;2024-01-11T11:09:56;96832.84;;;16.92;65.02
51123;BME280;37162;41.724;13.346;2024-01-11T11:12:22;96831.22;;;16.91;65.07
51123;BME280;37162;41.724;13.346;2024-01-11T11:14:49;96827.72;;;16.90;65.13
51123;BME280;37162;41.724;13.346;2024-01-11T11:17:15;96826.69;;;16.91;65.49
51123;BME280;37162;41.724;13.346;2024-01-11T11:19:42;96823.41;;;16.89;65.48
51123;BME280;37162;41.724;13.346;2024-01-11T11:22:07;96815.38;;;16.89;65.68
51123;BME280;37162;41.724;13.346;2024-01-11T11:24:36;96816.41;;;16.88;65.71
51123;BME280;37162;41.724;13.346;2024-01-11T11:27:01;96804.63;;;16.89;65.72
51123;BME280;37162;41.724;13.346;2024-01-11T11:29:28;96799.47;;;16.88;65.76
51123;BME280;37162;41.724;13.346;2024-01-11T11:31:54;96797.84;;;16.86;65.52
51123;BME280;37162;41.724;13.346;2024-01-11T11:34:20;96794.34;;;16.86;65.34
51123;BME280;37162;41.724;13.346;2024-01-11T11:36:50;96785.00;;;16.89;65.39
51123;BME280;37162;41.724;13.346;2024-01-11T11:39:20;96786.06;;;16.88;65.69
51123;BME280;37162;41.724;13.346;2024-01-11T11:41:47;96784.81;;;16.90;66.15
51123;BME280;37162;41.724;13.346;2024-01-11T11:44:15;96782.94;;;16.91;66.69
51123;BME280;37162;41.724;13.346;2024-01-11T11:46:41;96762.16;;;16.86;66.41
51123;BME280;37162;41.724;13.346;2024-01-11T11:49:07;96760.03;;;16.88;66.19
51123;BME280;37162;41.724;13.346;2024-01-11T11:51:32;96764.72;;;16.93;66.46
51123;BME280;37162;41.724;13.346;2024-01-11T11:53:58;96762.63;;;16.95;66.66
51123;BME280;37162;41.724;13.346;2024-01-11T11:56:23;96756.22;;;16.96;66.78
51123;BME280;37162;41.724;13.346;2024-01-11T11:58:49;96749.78;;;16.97;67.01
51123;BME280;37162;41.724;13.346;2024-01-11T12:01:17;96746.03;;;16.98;66.96
51123;BME280;37162;41.724;13.346;2024-01-11T12:03:43;96739.06;;;16.97;66.45
51123;BME280;37162;41.724;13.346;2024-01-11T12:06:20;96737.78;;;16.99;66.26
51123;BME280;37162;41.724;13.346;2024-01-11T12:08:47;96721.78;;;16.93;65.89
51123;BME280;37162;41.724;13.346;2024-01-11T12:11:14;96729.50;;;17.01;65.75
51123;BME280;37162;41.724;13.346;2024-01-11T12:13:41;96722.00;;;17.03;65.79
51123;BME280;37162;41.724;13.346;2024-01-11T12:16:06;96719.00;;;16.99;65.73
51123;BME280;37162;41.724;13.346;2024-01-11T12:18:32;96709.44;;;17.03;65.77
51123;BME280;37162;41.724;13.346;2024-01-11T12:20:57;96711.28;;;17.03;65.77
51123;BME280;37162;41.724;13.346;2024-01-11T12:23:27;96716.06;;;17.01;66.19
51123;BME280;37162;41.724;13.346;2024-01-11T12:25:56;96712.13;;;17.03;66.37
51123;BME280;37162;41.724;13.346;2024-01-11T12:28:22;96710.47;;;17.02;66.33
51123;BME280;37162;41.724;13.346;2024-01-11T12:30:47;96700.53;;;17.03;66.44
51123;BME280;37162;41.724;13.346;2024-01-11T12:33:13;96696.22;;;17.02;66.52
51123;BME280;37162;41.724;13.346;2024-01-11T12:35:39;96700.78;;;17.01;66.62
51123;BME280;37162;41.724;13.346;2024-01-11T12:38:05;96693.53;;;17.02;66.43
51123;BME280;37162;41.724;13.346;2024-01-11T12:40:35;96688.97;;;17.02;66.57
51123;BME280;37162;41.724;13.346;2024-01-11T12:43:05;96688.16;;;17.02;66.47
51123;BME280;37162;41.724;13.346;2024-01-11T12:45:32;96687.34;;;17.01;66.62
51123;BME280;37162;41.724;13.346;2024-01-11T12:48:00;96695.41;;;17.01;66.67
51123;BME280;37162;41.724;13.346;2024-01-11T12:50:27;96687.34;;;17.01;66.54